Time;durP1;ratioP1;P1;durP2;ratioP2;P2;SDS_P1;SDS_P2;PMS_P1;PMS_P2;Temp;Humidity;BMP_temperature;BMP_pressure;BME280_temperature;BME280_humidity;BME280_pressure;Samples;Min_cycle;Max_cycle;Signal;HPM_P1;HPM_P2
2022/04/10 00:01:30;;;;;;;3.92;2.92;;;15.10;58.00;;;;;;5055855;28;20383;-70
2022/04/10 00:03:56;;;;;;;5.95;3.00;;;15.10;58.10;;;;;;5055685;28;20021;-70
2022/04/10 00:06:23;;;;;;;4.50;2.75;;;15.00;58.80;;;;;;5056028;28;20094;-70
2022/04/10 00:08:48;;;;;;;4.28;3.00;;;15.00;58.30;;;;;;5055469;28;20179;-70
2022/04/10 00:11:14;;;;;;;3.95;3.08;;;14.90;58.30;;;;;;5055649;28;20112;-70
2022/04/10 00:13:40;;;;;;;4.63;2.88;;;14.90;58.40;;;;;;5055509;28;20025;-70
2022/04/10 00:16:05;;;;;;;4.25;2.88;;;14.80;58.50;;;;;;5055575;28;20429;-70
2022/04/10 00:18:31;;;;;;;5.28;2.92;;;14.80;58.70;;;;;;5055673;28;20169;-70
2022/04/10 00:20:57;;;;;;;5.72;3.38;;;14.80;58.80;;;;;;5055452;28;20025;-70
2022/04/10 00:23:22;;;;;;;4.65;2.80;;;14.80;58.80;;;;;;5055664;28;20072;-70
2022/04/10 00:25:48;;;;;;;4.28;2.90;;;14.70;58.90;;;;;;5055341;28;20075;-70
2022/04/10 00:28:14;;;;;;;5.05;3.55;;;14.70;59.10;;;;;;5055444;28;20040;-70
2022/04/10 00:30:39;;;;;;;5.57;3.80;;;14.70;59.40;;;;;;5054205;28;20029;-70
2022/04/10 00:33:05;;;;;;;5.45;3.80;;;14.60;59.80;;;;;;5054998;28;20108;-71
2022/04/10 00:35:30;;;;;;;7.88;4.13;;;14.50;60.30;;;;;;5055475;28;20068;-70
2022/04/10 00:37:56;;;;;;;6.60;4.35;;;14.40;60.60;;;;;;5055345;28;20071;-70
2022/04/10 00:40:22;;;;;;;7.57;5.20;;;14.40;61.20;;;;;;5053943;28;20025;-70
2022/04/10 00:42:49;;;;;;;7.93;5.43;;;14.30;61.50;;;;;;5055413;28;20060;-70
2022/04/10 00:45:16;;;;;;;6.40;4.82;;;14.20;61.60;;;;;;5054700;28;20036;-70
2022/04/10 00:47:44;;;;;;;7.20;5.25;;;14.10;62.10;;;;;;5054988;28;20025;-70
2022/04/10 00:50:11;;;;;;;7.28;5.25;;;14.00;62.40;;;;;;5055223;28;20035;-70
2022/04/10 00:52:37;;;;;;;6.90;4.97;;;13.90;62.50;;;;;;5054817;28;20020;-70
2022/04/10 00:55:04;;;;;;;7.18;4.90;;;13.90;62.90;;;;;;5054701;28;20033;-70
2022/04/10 00:57:29;;;;;;;5.85;4.50;;;13.80;63.60;;;;;;5053313;28;20090;-70
2022/04/10 00:59:55;;;;;;;5.32;3.97;;;13.80;63.70;;;;;;5054727;28;20052;-70
2022/04/10 01:02:20;;;;;;;5.10;4.00;;;13.70;63.40;;;;;;5054376;28;20028;-70
2022/04/10 01:04:46;;;;;;;5.18;3.80;;;13.60;63.60;;;;;;5054487;28;20052;-70
2022/04/10 01:07:13;;;;;;;4.38;3.50;;;13.50;63.60;;;;;;5054497;28;20512;-70
2022/04/10 01:09:40;;;;;;;4.57;3.55;;;13.50;63.60;;;;;;5054634;28;20035;-70
2022/04/10 01:12:07;;;;;;;4.22;3.35;;;13.50;63.80;;;;;;5054384;28;20035;-70
2022/04/10 01:14:33;;;;;;;4.45;3.40;;;13.40;63.90;;;;;;5054365;28;20451;-70
2022/04/10 01:16:59;;;;;;;3.88;3.28;;;13.40;63.90;;;;;;5054254;28;20033;-70
2022/04/10 01:19:25;;;;;;;4.63;3.30;;;13.30;64.00;;;;;;5054479;28;20039;-70
2022/04/10 01:21:53;;;;;;;3.55;3.08;;;13.30;64.20;;;;;;5054223;28;20020;-70
2022/04/10 01:24:19;;;;;;;5.18;3.45;;;13.30;64.20;;;;;;5053195;28;20025;-70
2022/04/10 01:26:45;;;;;;;3.72;2.92;;;13.20;64.60;;;;;;5054111;28;20115;-70
2022/04/10 01:29:13;;;;;;;4.72;2.95;;;13.20;64.50;;;;;;5053983;28;20424;-70
2022/04/10 01:31:46;;;;;;;3.70;2.97;;;13.10;64.70;;;;;;5053783;28;20120;-70
2022/04/10 01:34:14;;;;;;;3.35;2.75;;;13.10;64.80;;;;;;5054005;28;20021;-70
2022/04/10 01:36:40;;;;;;;3.88;2.70;;;13.10;65.00;;;;;;5052670;28;20120;-70
2022/04/10 01:39:09;;;;;;;3.63;2.50;;;13.10;64.90;;;;;;5053939;28;20448;-70
2022/04/10 01:41:35;;;;;;;2.97;2.67;;;13.00;64.80;;;;;;5053693;28;20021;-70
2022/04/10 01:44:02;;;;;;;2.90;2.58;;;13.00;65.10;;;;;;5054004;28;20021;-70
2022/04/10 01:46:30;;;;;;;3.33;2.70;;;12.90;65.10;;;;;;5053755;28;20041;-70
2022/04/10 01:48:56;;;;;;;3.40;2.63;;;12.90;66.00;;;;;;5054341;28;20107;-70
2022/04/10 01:51:23;;;;;;;2.53;2.30;;;12.80;65.70;;;;;;5053590;28;20060;-70
2022/04/10 01:53:50;;;;;;;2.70;2.30;;;12.80;65.70;;;;;;5052412;28;20479;-70
2022/04/10 01:56:16;;;;;;;2.45;2.25;;;12.70;65.60;;;;;;5053715;28;20106;-68
2022/04/10 01:58:44;;;;;;;2.25;2.13;;;12.70;65.70;;;;;;5054018;28;20116;-69
2022/04/10 02:01:11;;;;;;;2.80;2.60;;;12.60;65.90;;;;;;5053475;28;20057;-69
2022/04/10 02:03:37;;;;;;;2.30;2.10;;;12.50;66.20;;;;;;5052337;28;20021;-69
2022/04/10 02:06:04;;;;;;;2.42;2.20;;;12.50;66.10;;;;;;5051836;28;20055;-69
2022/04/10 02:08:30;;;;;;;2.40;2.20;;;12.40;66.20;;;;;;5053330;28;20037;-69
2022/04/10 02:10:56;;;;;;;2.00;1.90;;;12.40;66.40;;;;;;5053265;28;20099;-69
2022/04/10 02:13:22;;;;;;;2.30;2.10;;;12.40;66.10;;;;;;5053535;28;20455;-68
2022/04/10 02:15:48;;;;;;;2.03;1.88;;;12.40;66.20;;;;;;5053360;28;20055;-68
2022/04/10 02:18:14;;;;;;;2.30;2.10;;;12.30;66.20;;;;;;5053290;28;20029;-68
2022/04/10 02:20:40;;;;;;;2.05;1.95;;;12.30;66.50;;;;;;5053267;28;20064;-70
2022/04/10 02:23:06;;;;;;;2.10;2.00;;;12.30;66.50;;;;;;5053438;28;20426;-68
2022/04/10 02:25:32;;;;;;;2.22;2.13;;;12.30;66.70;;;;;;5053236;28;20037;-70
2022/04/10 02:27:57;;;;;;;2.50;2.08;;;12.20;66.50;;;;;;5053619;28;20036;-68
2022/04/10 02:30:23;;;;;;;2.22;2.13;;;12.20;66.50;;;;;;5053738;28;20068;-68
2022/04/10 02:32:48;;;;;;;2.30;2.10;;;12.20;66.70;;;;;;5053062;28;20102;-68
2022/04/10 02:35:14;;;;;;;2.58;2.38;;;12.20;66.80;;;;;;5053175;28;20029;-68
2022/04/10 02:37:40;;;;;;;2.10;2.00;;;12.10;67.10;;;;;;5053093;28;20029;-68
2022/04/10 02:40:07;;;;;;;2.25;2.05;;;12.10;67.00;;;;;;5053485;28;20029;-68
2022/04/10 02:42:36;;;;;;;1.92;1.83;;;12.00;66.90;;;;;;5054324;28;20033;-69
2022/04/10 02:45:02;;;;;;;2.10;2.00;;;12.00;67.00;;;;;;5057228;28;20467;-68
2022/04/10 02:47:30;;;;;;;2.30;2.20;;;12.00;67.00;;;;;;5055736;28;20052;-69
2022/04/10 02:49:56;;;;;;;2.20;2.10;;;12.00;67.10;;;;;;5056094;28;20083;-68
2022/04/10 02:52:22;;;;;;;2.25;2.15;;;12.00;67.10;;;;;;5056876;28;20467;-68
2022/04/10 02:54:48;;;;;;;2.30;2.10;;;12.00;67.50;;;;;;5057619;28;20099;-68
2022/04/10 02:57:13;;;;;;;2.10;2.00;;;12.00;67.60;;;;;;5057138;28;20074;-72
2022/04/10 02:59:39;;;;;;;2.20;2.10;;;11.90;67.40;;;;;;5057128;28;20033;-70
2022/04/10 03:02:05;;;;;;;2.00;1.90;;;11.90;67.60;;;;;;5056970;28;20467;-68
2022/04/10 03:04:31;;;;;;;2.30;2.10;;;11.90;67.60;;;;;;5055462;28;20119;-69
2022/04/10 03:06:56;;;;;;;2.20;2.10;;;11.90;67.70;;;;;;5056600;28;20060;-69
2022/04/10 03:09:22;;;;;;;2.80;2.30;;;11.90;67.70;;;;;;5056829;28;20123;-68
2022/04/10 03:11:48;;;;;;;2.50;2.30;;;11.90;67.60;;;;;;5056826;28;20031;-69
2022/04/10 03:14:14;;;;;;;2.17;2.05;;;11.90;67.70;;;;;;5056679;28;20029;-69
2022/04/10 03:16:39;;;;;;;2.55;2.35;;;11.90;67.80;;;;;;5056538;28;20475;-69
2022/04/10 03:19:05;;;;;;;2.60;2.40;;;11.80;67.80;;;;;;5056687;28;20452;-69
2022/04/10 03:21:31;;;;;;;2.95;2.65;;;11.70;67.90;;;;;;5056374;28;20470;-69
2022/04/10 03:23:56;;;;;;;2.70;2.50;;;11.80;68.00;;;;;;5056442;28;20029;-69
2022/04/10 03:26:22;;;;;;;2.40;2.20;;;11.80;68.10;;;;;;5056599;28;20041;-69
2022/04/10 03:28:48;;;;;;;3.22;2.35;;;11.70;68.00;;;;;;5055140;28;20098;-69
2022/04/10 03:31:13;;;;;;;2.70;2.50;;;11.80;68.00;;;;;;5056325;28;20029;-69
2022/04/10 03:33:39;;;;;;;2.40;2.20;;;11.80;68.10;;;;;;5056182;28;20483;-69
2022/04/10 03:36:05;;;;;;;2.40;2.20;;;11.80;67.90;;;;;;5056158;28;20033;-69
2022/04/10 03:38:31;;;;;;;2.40;2.20;;;11.80;68.10;;;;;;5057160;28;20074;-70
2022/04/10 03:40:57;;;;;;;2.65;2.45;;;11.80;68.00;;;;;;5056167;28;20028;-69
2022/04/10 03:43:22;;;;;;;2.65;2.45;;;11.80;68.00;;;;;;5056094;28;20024;-69
2022/04/10 03:45:48;;;;;;;2.60;2.40;;;11.80;68.10;;;;;;5055928;28;20061;-69
2022/04/10 03:48:13;;;;;;;2.63;2.42;;;11.80;68.10;;;;;;5055921;28;20025;-69
2022/04/10 03:50:39;;;;;;;2.40;2.20;;;11.80;68.20;;;;;;5056073;28;20526;-69
2022/04/10 03:53:05;;;;;;;2.35;2.20;;;11.70;68.20;;;;;;5055974;28;20082;-69
2022/04/10 03:55:32;;;;;;;2.72;2.53;;;11.70;68.30;;;;;;5055982;28;20033;-69
2022/04/10 03:57:58;;;;;;;2.63;2.42;;;11.60;68.40;;;;;;5056024;28;20036;-69
2022/04/10 04:00:23;;;;;;;2.42;2.22;;;11.50;68.40;;;;;;5054520;28;20361;-70
2022/04/10 04:02:49;;;;;;;2.50;2.30;;;11.60;68.50;;;;;;5055797;28;20079;-69
2022/04/10 04:05:15;;;;;;;2.28;2.13;;;11.50;68.50;;;;;;5055301;28;20048;-69
2022/04/10 04:07:41;;;;;;;2.28;2.17;;;11.50;68.70;;;;;;5055633;28;20033;-69
2022/04/10 04:10:07;;;;;;;2.53;2.30;;;11.50;68.90;;;;;;5055860;28;20071;-69
2022/04/10 04:12:37;;;;;;;2.40;2.20;;;11.50;68.90;;;;;;5055899;28;20060;-69
2022/04/10 04:15:04;;;;;;;2.67;2.47;;;11.40;68.90;;;;;;5055620;28;20035;-69
2022/04/10 04:17:29;;;;;;;2.20;2.10;;;11.40;69.00;;;;;;5054046;28;20037;-70
2022/04/10 04:19:56;;;;;;;2.65;2.35;;;11.40;69.10;;;;;;5054024;28;20361;-69
2022/04/10 04:22:21;;;;;;;2.50;2.30;;;11.40;69.20;;;;;;5055769;28;20065;-69
2022/04/10 04:24:47;;;;;;;2.38;2.17;;;11.50;69.20;;;;;;5055673;28;20396;-69
2022/04/10 04:27:13;;;;;;;2.80;2.50;;;11.50;69.30;;;;;;5055381;28;20025;-70
2022/04/10 04:29:39;;;;;;;2.53;2.33;;;11.40;69.20;;;;;;5055336;28;20030;-69
2022/04/10 04:32:05;;;;;;;2.80;2.60;;;11.40;69.40;;;;;;5055084;28;20047;-69
2022/04/10 04:34:30;;;;;;;2.97;2.67;;;11.40;69.20;;;;;;5055019;28;20029;-69
2022/04/10 04:36:56;;;;;;;3.10;2.80;;;11.40;69.60;;;;;;5055192;28;20117;-69
2022/04/10 04:39:22;;;;;;;3.05;2.70;;;11.40;69.60;;;;;;5054924;28;20024;-69
2022/04/10 04:41:47;;;;;;;2.80;2.60;;;11.30;69.50;;;;;;5055156;28;20065;-70
2022/04/10 04:44:13;;;;;;;3.53;2.80;;;11.20;69.50;;;;;;5054847;28;20532;-70
2022/04/10 04:46:39;;;;;;;3.00;2.70;;;11.30;69.60;;;;;;5054752;28;20044;-69
2022/04/10 04:49:04;;;;;;;3.17;2.88;;;11.20;69.80;;;;;;5054823;28;20056;-70
2022/04/10 04:51:34;;;;;;;2.92;2.70;;;11.20;69.90;;;;;;5054664;28;20454;-71
2022/04/10 04:54:01;;;;;;;2.85;2.55;;;11.20;69.90;;;;;;5055046;28;20032;-70
2022/04/10 04:56:26;;;;;;;2.75;2.50;;;11.20;70.00;;;;;;5053603;28;20040;-70
2022/04/10 04:58:52;;;;;;;3.00;2.70;;;11.20;70.00;;;;;;5053472;28;20387;-70
2022/04/10 05:01:17;;;;;;;2.60;2.40;;;11.20;69.90;;;;;;5054488;28;20053;-70
2022/04/10 05:03:43;;;;;;;2.75;2.55;;;11.20;69.90;;;;;;5054491;28;20099;-70
2022/04/10 05:06:09;;;;;;;3.30;2.60;;;11.20;69.80;;;;;;5053779;28;20497;-70
2022/04/10 05:08:34;;;;;;;2.78;2.53;;;11.30;69.90;;;;;;5054581;28;20056;-70
2022/04/10 05:11:00;;;;;;;3.70;2.95;;;11.20;69.90;;;;;;5054595;28;20033;-70
2022/04/10 05:13:26;;;;;;;3.00;2.70;;;11.20;70.00;;;;;;5054366;28;20470;-70
2022/04/10 05:15:52;;;;;;;3.10;2.80;;;11.10;70.20;;;;;;5053181;28;20039;-70
2022/04/10 05:18:19;;;;;;;3.28;2.58;;;11.10;70.60;;;;;;5054315;28;20033;-70
2022/04/10 05:20:45;;;;;;;2.50;2.30;;;11.00;70.50;;;;;;5053448;28;20025;-70
2022/04/10 05:23:15;;;;;;;3.42;2.78;;;11.10;70.50;;;;;;5054211;28;20060;-70
2022/04/10 05:25:41;;;;;;;2.95;2.65;;;11.10;70.50;;;;;;5054394;28;20086;-70
2022/04/10 05:28:06;;;;;;;3.03;2.70;;;11.10;70.70;;;;;;5054327;28;20037;-70
2022/04/10 05:30:32;;;;;;;3.35;2.55;;;11.10;70.70;;;;;;5054050;28;20068;-70
2022/04/10 05:32:58;;;;;;;3.10;2.70;;;11.10;71.00;;;;;;5054114;28;20448;-70
2022/04/10 05:35:23;;;;;;;3.03;2.70;;;11.10;70.80;;;;;;5054557;28;20036;-70
2022/04/10 05:37:49;;;;;;;2.88;2.63;;;11.00;70.70;;;;;;5053020;28;20463;-70
2022/04/10 05:40:16;;;;;;;3.13;2.60;;;11.00;70.70;;;;;;5054153;28;20033;-70
2022/04/10 05:42:45;;;;;;;2.70;2.50;;;11.00;70.80;;;;;;5053838;28;20017;-70
2022/04/10 05:45:11;;;;;;;2.58;2.38;;;11.10;70.80;;;;;;5053903;28;20460;-70
2022/04/10 05:47:41;;;;;;;3.22;2.50;;;11.10;70.80;;;;;;5052792;28;20037;-70
2022/04/10 05:50:09;;;;;;;2.92;2.63;;;11.10;71.00;;;;;;5052547;28;20035;-70
2022/04/10 05:52:38;;;;;;;3.20;2.53;;;11.10;70.70;;;;;;5053868;28;20123;-70
2022/04/10 05:55:05;;;;;;;2.70;2.50;;;11.10;70.80;;;;;;5053727;28;20032;-70
2022/04/10 05:57:31;;;;;;;2.67;2.47;;;11.00;70.80;;;;;;5052401;28;20040;-70
2022/04/10 05:59:56;;;;;;;2.40;2.20;;;11.00;70.90;;;;;;5053475;28;20025;-70
2022/04/10 06:02:22;;;;;;;2.67;2.47;;;11.00;70.80;;;;;;5053886;28;20033;-70
2022/04/10 06:04:47;;;;;;;2.67;2.47;;;11.10;70.80;;;;;;5053202;28;20456;-70
2022/04/10 06:07:13;;;;;;;4.07;2.70;;;11.10;70.80;;;;;;5053412;28;20045;-70
2022/04/10 06:09:38;;;;;;;2.47;2.28;;;11.10;71.10;;;;;;5053481;28;20071;-70
2022/04/10 06:12:04;;;;;;;2.60;2.40;;;11.10;71.00;;;;;;5053489;28;20479;-70
2022/04/10 06:14:30;;;;;;;2.60;2.40;;;11.10;71.10;;;;;;5052978;28;20033;-70
2022/04/10 06:16:56;;;;;;;2.47;2.28;;;11.20;71.10;;;;;;5052928;28;20035;-70
2022/04/10 06:19:21;;;;;;;2.63;2.40;;;11.20;71.00;;;;;;5053449;28;20024;-70
2022/04/10 06:21:47;;;;;;;2.65;2.40;;;11.30;70.90;;;;;;5053308;28;20017;-70
2022/04/10 06:24:12;;;;;;;2.85;2.50;;;11.30;70.60;;;;;;5053397;28;20025;-70
2022/04/10 06:26:38;;;;;;;2.67;2.47;;;11.30;70.70;;;;;;5053202;28;20124;-70
2022/04/10 06:29:03;;;;;;;2.97;2.20;;;11.30;70.60;;;;;;5053398;28;20036;-70
2022/04/10 06:31:29;;;;;;;2.50;2.30;;;11.20;70.70;;;;;;5053470;28;20022;-70
2022/04/10 06:33:56;;;;;;;2.40;2.20;;;11.20;70.70;;;;;;5053231;28;20036;-70
2022/04/10 06:36:22;;;;;;;2.47;2.28;;;11.20;70.70;;;;;;5053389;28;20064;-70
2022/04/10 06:38:49;;;;;;;2.50;2.30;;;11.30;70.80;;;;;;5052006;28;20024;-70
2022/04/10 06:41:15;;;;;;;2.30;2.00;;;11.30;70.80;;;;;;5051802;28;20078;-70
2022/04/10 06:43:40;;;;;;;3.25;2.70;;;11.30;70.70;;;;;;5053269;28;20462;-70
2022/04/10 06:46:06;;;;;;;2.60;2.40;;;11.30;70.70;;;;;;5053235;28;20055;-70
2022/04/10 06:48:32;;;;;;;2.40;2.20;;;11.50;70.50;;;;;;5053734;28;20091;-70
2022/04/10 06:50:58;;;;;;;2.40;2.20;;;11.50;70.40;;;;;;5053302;28;20463;-70
2022/04/10 06:53:24;;;;;;;3.08;2.40;;;11.50;70.40;;;;;;5053220;28;20106;-70
2022/04/10 06:55:49;;;;;;;2.90;2.30;;;11.50;70.30;;;;;;5053034;28;20521;-70
2022/04/10 06:58:17;;;;;;;3.53;2.50;;;11.50;70.40;;;;;;5053228;28;20053;-70
2022/04/10 07:00:42;;;;;;;3.55;2.88;;;11.60;70.40;;;;;;5053117;28;20025;-70
2022/04/10 07:03:08;;;;;;;3.15;2.30;;;11.60;70.30;;;;;;5053097;28;20025;-70
2022/04/10 07:05:35;;;;;;;2.88;2.20;;;11.70;70.20;;;;;;5053283;28;20471;-70
2022/04/10 07:08:01;;;;;;;2.78;2.40;;;11.70;70.10;;;;;;5053045;28;20036;-70
2022/04/10 07:10:28;;;;;;;2.00;1.90;;;11.80;70.00;;;;;;5053135;28;20017;-70
2022/04/10 07:12:53;;;;;;;2.53;2.15;;;11.80;69.70;;;;;;5052911;28;20471;-70
2022/04/10 07:15:19;;;;;;;2.20;2.00;;;11.80;69.60;;;;;;5052735;28;20039;-70
2022/04/10 07:17:44;;;;;;;2.28;2.00;;;11.90;69.60;;;;;;5053194;28;20120;-70
2022/04/10 07:20:10;;;;;;;2.40;2.20;;;11.90;69.50;;;;;;5052686;28;20029;-70
2022/04/10 07:25:20;;;;;;;2.00;1.90;;;12.10;69.10;;;;;;5052460;28;20494;-70
2022/04/10 07:27:45;;;;;;;2.40;2.20;;;12.10;68.80;;;;;;5052665;28;20033;-70
2022/04/10 07:30:11;;;;;;;3.20;2.25;;;12.10;68.70;;;;;;5054384;28;20025;-70
2022/04/10 07:32:38;;;;;;;2.30;2.10;;;12.00;68.60;;;;;;5056321;28;20383;-70
2022/04/10 07:35:06;;;;;;;2.75;2.50;;;11.90;68.60;;;;;;5056212;28;20527;-70
2022/04/10 07:37:32;;;;;;;3.33;2.45;;;11.80;68.80;;;;;;5056061;28;20033;-70
2022/04/10 07:39:58;;;;;;;2.53;2.30;;;11.80;68.90;;;;;;5056067;28;20032;-70
2022/04/10 07:42:24;;;;;;;2.53;2.28;;;11.80;68.90;;;;;;5056199;28;20036;-70
2022/04/10 07:44:54;;;;;;;5.03;2.38;;;11.80;68.90;;;;;;5056070;28;20106;-70
2022/04/10 07:47:26;;;;;;;3.40;2.53;;;11.80;68.80;;;;;;5055875;28;20025;-70
2022/04/10 07:49:53;;;;;;;2.38;2.17;;;11.80;68.70;;;;;;5055868;28;20108;-70
2022/04/10 07:52:23;;;;;;;2.45;2.25;;;11.90;68.80;;;;;;5056189;28;20040;-70
2022/04/10 07:54:49;;;;;;;2.03;1.92;;;11.90;68.60;;;;;;5055374;28;20456;-70
2022/04/10 07:57:16;;;;;;;2.97;2.15;;;12.00;68.60;;;;;;5055700;28;20117;-69
2022/04/10 07:59:42;;;;;;;1.90;1.80;;;12.00;69.00;;;;;;5055491;28;20475;-69
2022/04/10 08:02:08;;;;;;;2.30;2.10;;;12.00;68.40;;;;;;5055958;28;20021;-70
2022/04/10 08:04:34;;;;;;;2.20;2.00;;;12.00;68.20;;;;;;5055697;28;20025;-70
2022/04/10 08:06:59;;;;;;;2.30;2.10;;;12.10;68.20;;;;;;5055516;28;20036;-70
2022/04/10 08:09:25;;;;;;;2.17;1.98;;;12.00;68.30;;;;;;5056022;28;20047;-70
2022/04/10 08:11:51;;;;;;;3.05;2.10;;;12.00;68.20;;;;;;5055359;28;20025;-70
2022/04/10 08:14:17;;;;;;;2.35;2.15;;;12.00;68.00;;;;;;5055185;28;20110;-70
2022/04/10 08:16:42;;;;;;;2.35;2.00;;;12.00;68.20;;;;;;5055095;28;20029;-70
2022/04/10 08:19:08;;;;;;;2.45;2.25;;;11.90;68.00;;;;;;5055298;28;20091;-70
2022/04/10 08:21:34;;;;;;;1.95;1.85;;;11.80;68.20;;;;;;5055218;28;20352;-70
2022/04/10 08:23:59;;;;;;;2.17;2.08;;;11.80;68.20;;;;;;5055309;28;20463;-70
2022/04/10 08:26:25;;;;;;;2.28;1.95;;;11.70;68.20;;;;;;5054829;28;20039;-69
2022/04/10 08:28:51;;;;;;;2.40;2.20;;;11.70;68.20;;;;;;5055109;28;20082;-69
2022/04/10 08:31:16;;;;;;;2.50;2.30;;;11.50;68.30;;;;;;5055266;28;20028;-70
2022/04/10 08:33:42;;;;;;;2.15;2.05;;;11.50;68.40;;;;;;5054948;28;20463;-70
2022/04/10 08:36:08;;;;;;;2.10;2.00;;;11.40;68.50;;;;;;5055107;28;20029;-69
2022/04/10 08:38:34;;;;;;;2.22;2.03;;;11.40;68.60;;;;;;5054781;28;20025;-70
2022/04/10 08:41:01;;;;;;;2.30;2.10;;;11.30;68.60;;;;;;5054656;28;20352;-69
2022/04/10 08:43:28;;;;;;;2.88;2.40;;;11.30;68.80;;;;;;5055101;28;20111;-70
2022/04/10 08:45:57;;;;;;;2.45;2.25;;;11.20;68.90;;;;;;5055177;28;20029;-70
2022/04/10 08:48:26;;;;;;;2.60;2.30;;;11.10;68.80;;;;;;5053540;28;20116;-70
2022/04/10 08:50:56;;;;;;;2.55;2.35;;;11.10;68.90;;;;;;5054774;28;20056;-69
2022/04/10 08:53:24;;;;;;;3.60;2.85;;;11.00;69.10;;;;;;5054924;28;20071;-69
2022/04/10 08:55:50;;;;;;;2.58;2.38;;;10.90;69.50;;;;;;5053523;28;20036;-69
2022/04/10 08:58:15;;;;;;;2.60;2.40;;;10.90;69.50;;;;;;5054890;28;20033;-70
2022/04/10 09:00:43;;;;;;;2.60;2.40;;;10.90;69.50;;;;;;5054805;28;20045;-70
2022/04/10 09:03:08;;;;;;;2.88;2.58;;;10.80;69.70;;;;;;5054680;28;20394;-71
2022/04/10 09:05:34;;;;;;;2.65;2.45;;;10.70;69.80;;;;;;5053090;28;20052;-71
2022/04/10 09:08:11;;;;;;;2.90;2.60;;;10.70;69.80;;;;;;5053313;28;20126;-70
2022/04/10 09:10:55;;;;;;;2.70;2.50;;;10.70;69.90;;;;;;5054364;28;20032;-70
2022/04/10 09:13:26;;;;;;;2.67;2.47;;;10.80;70.10;;;;;;5054451;28;20032;-71
2022/04/10 09:16:00;;;;;;;2.90;2.50;;;10.80;70.00;;;;;;5054406;28;20111;-71
2022/04/10 09:18:25;;;;;;;2.77;2.50;;;10.80;70.10;;;;;;5054617;28;20025;-70
2022/04/10 09:21:07;;;;;;;3.13;2.70;;;10.80;70.10;;;;;;5054269;28;20377;-69
2022/04/10 09:23:34;;;;;;;2.65;2.42;;;10.80;70.20;;;;;;5054027;28;20053;-69
2022/04/10 09:26:00;;;;;;;3.22;2.33;;;10.80;70.00;;;;;;5053897;28;20199;-69
2022/04/10 09:28:45;;;;;;;2.30;2.10;;;10.80;70.00;;;;;;5054111;28;20037;-69
2022/04/10 09:31:31;;;;;;;2.90;2.70;;;10.90;70.20;;;;;;5054038;28;20029;-69
2022/04/10 09:33:59;;;;;;;3.17;2.80;;;10.80;70.30;;;;;;5053999;28;20036;-69
2022/04/10 09:36:31;;;;;;;3.00;2.70;;;10.70;70.20;;;;;;5053875;28;20032;-70
2022/04/10 09:38:57;;;;;;;2.63;2.38;;;10.70;70.20;;;;;;5053775;28;20025;-69
2022/04/10 09:41:23;;;;;;;2.78;2.53;;;10.70;70.50;;;;;;5054018;28;20032;-70
2022/04/10 09:43:49;;;;;;;2.90;2.60;;;10.70;70.50;;;;;;5053883;28;20025;-71
2022/04/10 09:46:33;;;;;;;3.22;2.92;;;10.60;70.60;;;;;;5052458;28;20387;-71
2022/04/10 09:49:17;;;;;;;4.22;3.03;;;10.60;70.70;;;;;;5058000;28;20041;-71
2022/04/10 09:52:21;;;;;;;4.32;3.35;;;10.60;70.80;;;;;;5051746;28;20037;-70
2022/04/10 09:54:54;;;;;;;4.75;3.25;;;10.50;71.10;;;;;;5033063;28;20376;-70
2022/04/10 09:57:22;;;;;;;2.72;2.53;;;10.50;70.80;;;;;;5053355;28;20475;-71
2022/04/10 09:59:51;;;;;;;3.10;2.80;;;10.50;70.90;;;;;;5053940;28;20079;-70
2022/04/10 10:02:19;;;;;;;3.25;2.90;;;10.50;70.90;;;;;;5052413;28;20475;-70
2022/04/10 10:04:47;;;;;;;3.50;3.17;;;10.50;71.30;;;;;;5053421;28;20460;-70
2022/04/10 10:07:19;;;;;;;3.83;3.17;;;10.50;71.30;;;;;;5053560;28;20456;-71
2022/04/10 10:09:48;;;;;;;3.00;2.70;;;10.40;71.40;;;;;;5052280;28;20163;-71
2022/04/10 10:12:17;;;;;;;3.53;3.20;;;10.40;71.30;;;;;;5052208;28;20044;-70
2022/04/10 10:14:44;;;;;;;3.08;2.78;;;10.50;71.50;;;;;;5053268;28;20459;-70
2022/04/10 10:17:10;;;;;;;3.83;3.10;;;10.50;71.30;;;;;;5052216;28;20029;-71
2022/04/10 10:19:38;;;;;;;3.40;3.10;;;10.60;71.20;;;;;;5053532;28;20040;-70
2022/04/10 10:22:08;;;;;;;3.70;3.22;;;10.60;71.10;;;;;;5053649;28;20398;-70
2022/04/10 10:24:43;;;;;;;3.03;2.55;;;10.60;71.10;;;;;;5052244;28;20122;-71
2022/04/10 10:27:20;;;;;;;;;;;10.60;71.20;;;;;;5054067;28;20499;-70
2022/04/10 10:30:18;;;;;;;3.50;2.75;;;10.70;71.30;;;;;;5053672;28;19909;-70
2022/04/10 10:32:47;;;;;;;3.30;2.75;;;10.70;71.10;;;;;;5053559;28;20052;-71
2022/04/10 10:35:33;;;;;;;2.97;2.67;;;10.80;70.90;;;;;;5053137;28;20032;-70
2022/04/10 10:38:02;;;;;;;2.97;2.58;;;10.90;70.80;;;;;;5053019;28;20044;-71
2022/04/10 10:40:29;;;;;;;3.15;2.85;;;11.00;70.70;;;;;;5053526;28;20032;-70
2022/04/10 10:43:00;;;;;;;2.60;2.40;;;11.00;70.60;;;;;;5053642;28;20116;-70
2022/04/10 10:45:41;;;;;;;3.10;2.80;;;11.00;70.50;;;;;;5053188;28;20032;-70
2022/04/10 10:48:25;;;;;;;3.17;2.90;;;11.10;70.60;;;;;;5053368;28;20032;-70
2022/04/10 10:50:52;;;;;;;3.85;3.30;;;11.10;70.60;;;;;;5053477;28;20025;-70
2022/04/10 10:53:42;;;;;;;3.50;2.83;;;11.10;70.40;;;;;;5053091;28;20029;-70
2022/04/10 10:56:19;;;;;;;3.20;2.80;;;11.00;70.40;;;;;;5053235;28;20482;-70
2022/04/10 10:58:46;;;;;;;3.20;2.90;;;11.00;70.50;;;;;;5053130;28;20032;-70
2022/04/10 11:01:18;;;;;;;3.72;3.28;;;11.00;70.50;;;;;;5051642;28;20029;-70
2022/04/10 11:04:04;;;;;;;3.90;3.17;;;11.00;70.50;;;;;;5053106;28;20025;-70
2022/04/10 11:06:42;;;;;;;3.33;3.00;;;11.00;70.50;;;;;;5057004;28;20399;-70
2022/04/10 11:09:30;;;;;;;3.45;3.00;;;11.00;70.40;;;;;;5056852;28;20402;-70
2022/04/10 11:11:58;;;;;;;3.97;3.00;;;11.00;70.60;;;;;;5055169;28;20031;-70
2022/04/10 11:14:41;;;;;;;3.13;2.75;;;11.10;70.40;;;;;;5056268;28;20033;-70
2022/04/10 11:17:09;;;;;;;2.88;2.53;;;11.10;70.40;;;;;;5056944;28;20029;-70
2022/04/10 11:19:36;;;;;;;3.15;2.85;;;11.10;70.30;;;;;;5056476;28;20048;-70
2022/04/10 11:22:04;;;;;;;2.90;2.65;;;11.00;70.20;;;;;;5056450;28;20518;-70
2022/04/10 11:24:30;;;;;;;3.50;3.10;;;11.00;70.30;;;;;;5056373;28;20060;-70
2022/04/10 11:26:56;;;;;;;3.00;2.70;;;11.00;70.50;;;;;;5056364;28;20059;-70
2022/04/10 11:29:21;;;;;;;3.67;2.80;;;11.10;70.50;;;;;;5056494;28;20025;-70
2022/04/10 11:31:53;;;;;;;3.72;3.25;;;11.10;70.60;;;;;;5056909;28;20029;-70
2022/04/10 11:34:24;;;;;;;3.20;2.90;;;11.10;70.60;;;;;;5056644;28;20025;-70
2022/04/10 11:36:52;;;;;;;3.33;3.03;;;11.10;70.50;;;;;;5055408;28;20025;-70
2022/04/10 11:39:33;;;;;;;3.30;3.00;;;11.20;70.40;;;;;;5056074;28;20430;-70
2022/04/10 11:42:04;;;;;;;3.40;3.10;;;11.20;70.70;;;;;;5056303;28;20029;-70
2022/04/10 11:44:30;;;;;;;3.20;2.90;;;11.20;70.30;;;;;;5055152;28;20033;-70
2022/04/10 11:46:59;;;;;;;3.22;2.78;;;11.20;70.30;;;;;;5055989;28;20202;-70
2022/04/10 11:49:25;;;;;;;2.97;2.67;;;11.20;70.40;;;;;;5055830;28;20463;-69
2022/04/10 11:51:56;;;;;;;3.05;2.75;;;11.20;70.90;;;;;;5055794;28;20036;-69
2022/04/10 11:54:26;;;;;;;4.20;2.95;;;11.20;70.20;;;;;;5054655;28;20032;-70
2022/04/10 11:56:52;;;;;;;3.60;3.13;;;11.20;70.30;;;;;;5054768;28;20044;-70
2022/04/10 11:59:19;;;;;;;3.25;2.95;;;11.20;70.30;;;;;;5055960;28;20070;-69
2022/04/10 12:01:46;;;;;;;2.80;2.60;;;11.20;70.40;;;;;;5054066;28;20021;-69
2022/04/10 12:04:12;;;;;;;4.30;2.67;;;11.20;70.40;;;;;;5054007;28;20025;-70
2022/04/10 12:06:37;;;;;;;3.78;2.72;;;11.30;70.40;;;;;;5053447;28;20513;-69
2022/04/10 12:09:03;;;;;;;2.85;2.55;;;11.30;70.40;;;;;;5055101;28;20024;-70
2022/04/10 12:11:43;;;;;;;3.03;2.67;;;11.30;70.40;;;;;;5055158;28;20361;-70
2022/04/10 12:14:15;;;;;;;2.80;2.50;;;11.30;70.60;;;;;;5054976;28;20028;-69
2022/04/10 12:16:43;;;;;;;3.05;2.55;;;11.30;70.40;;;;;;5053587;28;20029;-69
2022/04/10 12:19:08;;;;;;;3.65;2.78;;;11.40;70.40;;;;;;5054768;28;20025;-69
2022/04/10 12:21:34;;;;;;;2.67;2.47;;;11.40;70.40;;;;;;5054945;28;20025;-70
2022/04/10 12:24:03;;;;;;;2.97;2.70;;;11.40;70.40;;;;;;5054837;28;20477;-69
2022/04/10 12:26:29;;;;;;;2.92;2.60;;;11.50;70.50;;;;;;5053707;28;20037;-70
2022/04/10 12:28:55;;;;;;;3.13;2.83;;;11.50;70.50;;;;;;5054500;28;20498;-69
2022/04/10 12:31:21;;;;;;;2.60;2.40;;;11.60;70.60;;;;;;5054685;28;20028;-69
2022/04/10 12:33:47;;;;;;;2.60;2.40;;;11.60;70.50;;;;;;5054295;28;20036;-71
2022/04/10 12:36:17;;;;;;;2.50;2.30;;;11.70;70.50;;;;;;5053535;28;20028;-70
2022/04/10 12:38:43;;;;;;;2.55;2.35;;;11.70;70.50;;;;;;5054683;28;20021;-70
2022/04/10 12:41:08;;;;;;;3.00;2.50;;;11.70;70.30;;;;;;5054621;28;20025;-69
2022/04/10 12:43:34;;;;;;;2.90;2.70;;;11.80;70.20;;;;;;5054776;28;20036;-69
2022/04/10 12:46:13;;;;;;;3.25;2.60;;;11.70;70.20;;;;;;5054245;28;20095;-69
2022/04/10 12:48:39;;;;;;;3.08;2.60;;;11.80;70.10;;;;;;5055206;28;20497;-69
2022/04/10 12:51:09;;;;;;;3.20;2.90;;;11.80;70.10;;;;;;5054435;28;20056;-69
2022/04/10 12:53:36;;;;;;;2.78;2.30;;;11.80;70.10;;;;;;5054133;28;20467;-69